• Join FlightAware (Why Join?)
  • Login
  • US Flag GB Flag 
08:36 EDT


 

Airport Tracker/Info


-or-


 

Live Flight TrackerFlight Track Log ✈ N400PU ✈ 08-Oct-2013 ✈ KLAF - KORD

Flight Track Log - Related Links

Times and Time Zones

All times are in EDT time to prevent confusion due to time zone crossing. See the N400PU flight status page for this flight to view local times or setup timezone preferences in your user account.

Time Position Orientation Groundspeed Altitude Reporting Facility
EDT Latitude Longitude Course Direction KTS MPH feet Rate Location/Type
09:44 40.4144 -86.9500 278° West 144 166 900  Level Chicago Center
09:45 40.4175 -86.9803 278° West 166 191 2,300 2,940 Climbing Chicago Center
09:46 40.4464 -87.0394 303° West 220 253 5,400 2,760 Climbing Chicago Center
09:46 40.4625 -87.0497 334° Northwest 213 245 6,400 3,060 Climbing Chicago Center
09:47 40.5036 -87.0708 339° North 233 268 8,500 2,880 Climbing Chicago Center
09:47 40.5244 -87.0792 343° North 236 272 9,400 960 Climbing Chicago Center
09:48 40.6194 -87.1253 340° North 306 352 10,000 240 Climbing Chicago Center
09:49 40.7056 -87.1689 339° North 331 381 10,000  Level Chicago Center
09:50 40.7939 -87.2117 340° North 338 389 10,000  Level Chicago Center
09:51 40.8800 -87.2553 339° North 335 386 10,000  Level Chicago Center
09:52 40.9661 -87.2978 340° North 333 383 10,000 -60 Level Chicago Center
09:53 41.0431 -87.3661 326° Northwest 337 388 9,900 -60 Descending Chicago Center
09:54 41.0989 -87.4839 302° West 336 387 9,900  Level Chicago Center
09:55 41.1214 -87.6019 284° West 332 382 9,900  Level Chicago Center
09:56 41.1456 -87.7203 285° West 333 383 9,900  Level Chicago Center
09:57 41.1700 -87.8383 285° West 334 384 10,000  Climbing Chicago Center
09:58 41.1953 -87.9561 286° West 332 382 10,000  Level Chicago Center
09:59 41.2203 -88.0758 286° West 334 384 10,000  Level Chicago Center
10:00 41.2506 -88.2197 286° West 333 383 10,000  Level Chicago Center
10:01 41.2694 -88.3392 282° West 332 382 10,000  Level Chicago Center
10:03 41.2633 -88.4631 266° West 340 391 10,000  Level Chicago Center
10:04 41.3006 -88.5719 294° West 331 381 10,000  Level Chicago Center
10:05 41.3842 -88.6192 337° Northwest 337 388 10,000  Level Chicago Center
10:06 41.4750 -88.6253 357° North 360 414 10,000  Level Chicago Center
10:07 41.5403 -88.5383 45° Northeast 335 386 10,000  Level Chicago Center
10:08 41.6164 -88.4303 47° Northeast 333 383 10,000  Level Chicago Center
10:09 41.6817 -88.3397 46° Northeast 336 387 10,000 -60 Level Chicago Center
10:10 41.7436 -88.2511 47° Northeast 327 376 9,900 -960 Descending Chicago Center
10:11 41.7978 -88.1836 43° Northeast 272 313 8,100 -1,440 Descending Chicago Center
10:12 41.8733 -88.1722 North 279 321 7,000 -540 Descending Chicago Center
10:13 41.9467 -88.1606 North 270 311 7,000 -660 Level Chicago Center
10:14 42.0253 -88.1494 North 237 273 5,700 -1,860 Descending Chicago Center
10:15 42.0783 -88.1086 30° Northeast 229 264 3,200 -1,680 Descending Chicago Center
10:16 42.0833 -88.0500 83° East 202 232 2,500 -600 Descending Chicago TRACON
10:17 42.0500 -88.0000 132° Southeast 177 204 2,100 -540 Descending Chicago TRACON
10:18 42.0167 -87.9667 143° Southeast 123 142 1,500 -660 Descending Chicago TRACON
10:19 42.0000 -87.9333 124° Southeast 117 135 800 -660 Descending Chicago TRACON